KMZZ/MZZ METAR and TAF weather

Enter ICAO airport designator
Station Type Date Time Source
KMZZ METAR 2021/03/05 05:55 UTC NOAA

KMZZ 050555Z AUTO 00000KT 10SM CLR M02/M06 A3031 RMK AO2 T10221062 10282 21235 402821235


Station Type Date Time Source
KMZZ Decoded METAR 2021/03/05 05:55 UTC NOAA

Station name not available
Mar 05, 2021 - 12:55 AM EST / 2021.03.05 0555 UTC
Wind: Calm:0
Visibility: 10 mile(s):0
Sky conditions: clear
Temperature: 28.0 F (-2.2 C)
Dew Point: 20.8 F (-6.2 C)
Relative Humidity: 74%
Pressure (altimeter): 30.31 in. Hg (1026 hPa)
ob: KMZZ 050555Z AUTO 00000KT 10SM CLR M02/M06 A3031 RMK AO2 T10221062 10282 21235 402821235
cycle: 6

Station Type Date Time Source
KMZZ TAF UTC NOAA

Error!

Example: see airport list